createdAt,value
2023-04-23T00:01:06.984Z,99478.66
2023-04-23T00:03:36.478Z,99472.78
2023-04-23T00:06:08.093Z,99439.69
2023-04-23T00:08:35.418Z,99475.19
2023-04-23T00:11:02.450Z,99438.28
2023-04-23T00:13:29.415Z,99463.81
2023-04-23T00:15:56.305Z,99506.09
2023-04-23T00:18:22.956Z,99429.06
2023-04-23T00:20:49.635Z,99262.78
2023-04-23T00:23:16.357Z,99453.06
2023-04-23T00:25:43.156Z,99466.38
2023-04-23T00:28:09.939Z,99424.81
2023-04-23T00:30:36.540Z,99442.97
2023-04-23T00:33:03.319Z,99391.28
2023-04-23T00:35:30.014Z,99414.81
2023-04-23T00:37:56.789Z,99257.44
2023-04-23T00:40:23.714Z,99367.59
2023-04-23T00:42:52.215Z,99272.56
2023-04-23T00:45:19.097Z,99363.88
2023-04-23T00:47:46.995Z,99312.84
2023-04-23T00:50:13.754Z,99406.56
2023-04-23T00:52:40.863Z,99399.47
2023-04-23T00:55:09.008Z,99363.69
2023-04-23T00:57:39.449Z,99407.41
2023-04-23T01:00:07.987Z,99203.91
2023-04-23T01:02:36.788Z,99396.56
2023-04-23T01:05:05.113Z,99299.59
2023-04-23T01:07:34.397Z,99355.84
2023-04-23T01:10:01.219Z,99396.63
2023-04-23T01:12:27.949Z,99254.38
2023-04-23T01:14:54.712Z,99387.44
2023-04-23T01:17:22.964Z,99228.16
2023-04-23T01:19:49.899Z,99294.78
2023-04-23T01:22:17.079Z,99287.72
2023-04-23T01:24:43.954Z,99360.97
2023-04-23T01:27:11.339Z,99289.00
2023-04-23T01:29:39.052Z,99334.69
2023-04-23T01:32:07.685Z,99174.56
2023-04-23T01:34:38.712Z,99308.38
2023-04-23T01:37:06.028Z,99257.47
2023-04-23T01:39:33.500Z,99348.91
2023-04-23T01:42:01.400Z,99160.47
2023-04-23T01:44:28.355Z,99353.75
2023-04-23T01:46:55.178Z,99344.53
2023-04-23T01:49:21.829Z,99335.13
2023-04-23T01:51:48.963Z,99306.78
2023-04-23T01:54:15.566Z,99339.00
2023-04-23T01:56:42.313Z,99226.94
2023-04-23T01:59:08.977Z,99265.78
2023-04-23T02:01:46.081Z,99261.41
2023-04-23T02:04:14.654Z,99356.78
2023-04-23T02:06:44.304Z,99336.59
2023-04-23T02:09:11.890Z,99337.19
2023-04-23T02:11:38.806Z,99328.75
2023-04-23T02:14:06.674Z,99295.41
2023-04-23T02:16:34.665Z,98969.94
2023-04-23T02:19:01.966Z,99192.78
2023-04-23T02:21:29.766Z,99304.72
2023-04-23T02:23:56.460Z,99272.66
2023-04-23T02:26:23.752Z,99304.91
2023-04-23T02:28:50.986Z,99290.50
2023-04-23T02:31:17.963Z,99296.97
2023-04-23T02:33:44.848Z,99312.47
2023-04-23T02:36:12.711Z,99282.88
2023-04-23T02:38:44.694Z,99199.94
2023-04-23T02:41:12.319Z,99194.59
2023-04-23T02:43:38.999Z,99285.06
2023-04-23T02:46:08.621Z,99188.56
2023-04-23T02:48:41.703Z,99277.50
2023-04-23T02:51:11.100Z,99287.31
2023-04-23T02:53:37.861Z,99271.59
2023-04-23T02:56:04.629Z,99118.97
2023-04-23T02:58:32.025Z,99225.25
2023-04-23T03:01:01.356Z,99254.53
2023-04-23T03:03:32.173Z,99218.38
2023-04-23T03:06:01.969Z,99247.94
2023-04-23T03:08:28.750Z,99237.06
2023-04-23T03:10:55.537Z,99224.50
2023-04-23T03:13:22.565Z,99219.94
2023-04-23T03:15:50.720Z,99212.06
2023-04-23T03:18:18.019Z,99143.75
2023-04-23T03:20:47.865Z,99055.28
2023-04-23T03:23:14.891Z,99154.34
2023-04-23T03:25:41.560Z,99118.38
2023-04-23T03:28:08.285Z,98871.34
2023-04-23T03:30:35.099Z,99142.97
2023-04-23T03:33:02.741Z,99094.47
2023-04-23T03:35:29.730Z,99113.75
2023-04-23T03:37:59.136Z,99067.66
2023-04-23T03:40:25.927Z,99139.47
2023-04-23T03:42:58.030Z,99134.03
2023-04-23T03:45:39.140Z,99138.97
2023-04-23T03:48:05.898Z,99141.06
2023-04-23T03:50:34.506Z,99149.53
2023-04-23T03:53:11.369Z,99060.38
2023-04-23T03:55:56.880Z,99143.53
2023-04-23T03:58:24.466Z,99135.56
2023-04-23T04:00:52.351Z,99015.53
2023-04-23T04:03:19.261Z,99040.25
2023-04-23T04:05:46.357Z,99032.94
2023-04-23T04:08:13.231Z,98741.78
2023-04-23T04:10:40.954Z,99035.31
2023-04-23T04:13:07.712Z,99096.47
2023-04-23T04:15:34.321Z,99111.69
2023-04-23T04:18:01.297Z,99102.34
2023-04-23T04:20:30.743Z,99111.09
2023-04-23T04:22:57.428Z,99101.44
2023-04-23T04:25:24.492Z,98945.97
2023-04-23T04:27:51.250Z,99080.75
2023-04-23T04:30:18.736Z,99092.34
2023-04-23T04:32:46.301Z,99084.94
2023-04-23T04:35:14.515Z,98870.72
2023-04-23T04:37:41.936Z,99077.09
2023-04-23T04:40:09.917Z,99072.19
2023-04-23T04:42:37.312Z,98970.25
2023-04-23T04:45:04.624Z,99058.81
2023-04-23T04:47:32.755Z,99048.34
2023-04-23T04:50:00.525Z,99031.16
2023-04-23T04:52:27.718Z,99019.06
2023-04-23T04:54:54.365Z,99026.19
2023-04-23T04:57:22.870Z,98930.41
2023-04-23T04:59:50.410Z,98968.88
2023-04-23T05:02:17.161Z,99026.78
2023-04-23T05:04:44.198Z,98998.50
2023-04-23T05:07:11.166Z,98874.81
2023-04-23T05:09:39.262Z,99035.91
2023-04-23T05:12:07.446Z,98859.06
2023-04-23T05:14:34.251Z,98746.28
2023-04-23T05:17:01.180Z,99067.47
2023-04-23T05:19:27.961Z,98971.00
2023-04-23T05:21:54.711Z,98968.94
2023-04-23T05:24:21.366Z,99066.28
2023-04-23T05:26:48.654Z,99061.25
2023-04-23T05:29:19.226Z,99071.06
2023-04-23T05:31:46.683Z,99024.59
2023-04-23T05:34:13.667Z,98766.59
2023-04-23T05:36:51.468Z,99042.78
2023-04-23T05:39:18.169Z,99058.31
2023-04-23T05:41:53.424Z,98969.03
2023-04-23T05:44:24.551Z,99054.28
2023-04-23T05:46:52.351Z,99055.50
2023-04-23T05:49:21.554Z,99055.84
2023-04-23T05:51:51.844Z,99022.22
2023-04-23T05:54:36.994Z,98956.22
2023-04-23T05:57:05.163Z,99048.31
2023-04-23T05:59:32.067Z,98997.34
2023-04-23T06:01:58.744Z,98954.63
2023-04-23T06:04:25.594Z,99008.03
2023-04-23T06:06:56.077Z,99019.81
2023-04-23T06:09:23.218Z,98979.09
2023-04-23T06:11:52.194Z,98881.59
2023-04-23T06:14:18.899Z,99011.03
2023-04-23T06:16:45.633Z,98978.69
2023-04-23T06:19:12.810Z,98978.03
2023-04-23T06:21:42.560Z,98977.47
2023-04-23T06:24:12.619Z,98982.38
2023-04-23T06:26:39.420Z,98966.75
2023-04-23T06:29:13.635Z,98872.06
2023-04-23T06:31:51.152Z,98955.75
2023-04-23T06:34:21.003Z,98876.53
2023-04-23T06:36:47.832Z,98804.31
2023-04-23T06:39:14.499Z,98945.47
2023-04-23T06:41:41.164Z,98827.47
2023-04-23T06:44:21.798Z,99060.72
2023-04-23T06:46:54.390Z,98784.72
2023-04-23T06:49:21.205Z,98681.31
2023-04-23T06:51:48.304Z,98922.09
2023-04-23T06:54:15.069Z,98957.78
2023-04-23T06:56:42.691Z,98931.84
2023-04-23T06:59:09.374Z,98794.59
2023-04-23T07:01:43.966Z,98904.47
2023-04-23T07:04:10.915Z,98947.44
2023-04-23T07:06:43.154Z,98940.28
2023-04-23T07:09:09.858Z,98943.00
2023-04-23T07:11:37.080Z,98949.56
2023-04-23T07:14:04.395Z,98768.03
2023-04-23T07:16:33.716Z,98951.56
2023-04-23T07:19:02.287Z,98950.88
2023-04-23T07:21:29.277Z,98937.25
2023-04-23T07:23:58.174Z,98865.19
2023-04-23T07:26:25.470Z,98970.75
2023-04-23T07:28:52.885Z,98911.53
2023-04-23T07:31:23.971Z,98962.03
2023-04-23T07:33:50.712Z,98780.94
2023-04-23T07:36:17.280Z,98960.72
2023-04-23T07:38:45.089Z,98949.88
2023-04-23T07:41:11.832Z,98892.13
2023-04-23T07:43:39.107Z,98950.44
2023-04-23T07:46:07.600Z,98951.81
2023-04-23T07:48:34.874Z,98937.75
2023-04-23T07:51:02.418Z,98933.47
2023-04-23T07:53:29.132Z,98926.50
2023-04-23T07:55:56.604Z,98945.75
2023-04-23T07:58:24.987Z,98938.47
2023-04-23T08:00:52.118Z,98926.41
2023-04-23T08:03:19.282Z,98901.31
2023-04-23T08:05:46.315Z,98922.44
2023-04-23T08:08:13.227Z,98898.78
2023-04-23T08:10:40.430Z,98779.53
2023-04-23T08:13:07.698Z,98819.81
2023-04-23T08:15:34.403Z,98908.22
2023-04-23T08:18:01.627Z,98537.13
2023-04-23T08:20:28.445Z,98863.91
2023-04-23T08:22:55.763Z,98769.72
2023-04-23T08:25:22.690Z,98916.09
2023-04-23T08:27:50.039Z,98916.81
2023-04-23T08:30:16.880Z,98916.09
2023-04-23T08:32:43.636Z,98901.63
2023-04-23T08:35:10.517Z,98907.13
2023-04-23T08:37:39.109Z,98798.75
2023-04-23T08:40:07.782Z,98910.38
2023-04-23T08:43:20.516Z,98908.88
2023-04-23T08:45:49.311Z,98919.03
2023-04-23T08:48:16.846Z,98733.41
2023-04-23T08:50:44.883Z,99001.00
2023-04-23T08:53:18.070Z,98874.84
2023-04-23T08:55:45.912Z,98787.25
2023-04-23T08:58:13.287Z,98906.66
2023-04-23T09:00:40.884Z,98912.88
2023-04-23T09:03:08.918Z,98835.91
2023-04-23T09:05:40.366Z,98889.31
2023-04-23T09:08:07.317Z,98786.06
2023-04-23T09:10:37.438Z,98896.28
2023-04-23T09:13:04.218Z,98910.84
2023-04-23T09:15:31.403Z,98872.78
2023-04-23T09:18:00.837Z,98839.97
2023-04-23T09:20:27.705Z,98913.84
2023-04-23T09:22:54.367Z,98927.91
2023-04-23T09:25:23.430Z,98769.59
2023-04-23T09:27:52.238Z,98813.19
2023-04-23T09:30:20.059Z,98871.22
2023-04-23T09:32:47.635Z,98681.34
2023-04-23T09:35:17.106Z,98761.50
2023-04-23T09:37:49.440Z,98841.06
2023-04-23T09:40:20.121Z,98858.41
2023-04-23T09:42:55.984Z,98720.81
2023-04-23T09:45:25.698Z,98694.59
2023-04-23T09:47:58.448Z,98898.13
2023-04-23T09:50:36.995Z,98954.84
2023-04-23T09:53:08.128Z,98921.94
2023-04-23T09:55:38.816Z,98938.25
2023-04-23T09:58:15.939Z,98832.72
2023-04-23T10:00:43.258Z,98916.63
2023-04-23T10:03:13.399Z,98866.16
2023-04-23T10:05:59.664Z,98905.84
2023-04-23T10:08:28.476Z,98832.97
2023-04-23T10:11:09.626Z,98913.75
2023-04-23T10:13:41.462Z,98874.28
2023-04-23T10:16:21.696Z,98912.69
2023-04-23T10:18:52.267Z,98558.75
2023-04-23T10:21:20.245Z,98730.59
2023-04-23T10:23:50.081Z,98901.53
2023-04-23T10:26:20.321Z,98804.16
2023-04-23T10:28:48.646Z,98909.56
2023-04-23T10:31:16.000Z,98904.38
2023-04-23T10:33:56.070Z,98674.09
2023-04-23T10:36:27.710Z,98848.09
2023-04-23T10:38:59.220Z,98901.78
2023-04-23T10:41:35.138Z,98726.00
2023-04-23T10:44:03.634Z,98946.56
2023-04-23T10:46:36.447Z,98799.81
2023-04-23T10:49:15.508Z,98754.06
2023-04-23T10:54:19.641Z,98843.06
2023-04-23T10:56:46.483Z,98907.81
2023-04-23T10:59:20.681Z,98875.91
2023-04-23T11:01:48.767Z,98711.50
2023-04-23T11:04:23.430Z,98908.63
2023-04-23T11:06:55.411Z,98910.25
2023-04-23T11:09:46.856Z,98914.28
2023-04-23T11:12:32.772Z,98917.38
2023-04-23T11:15:00.344Z,98912.22
2023-04-23T11:17:33.208Z,98913.50
2023-04-23T11:20:20.342Z,98804.22
2023-04-23T11:22:49.341Z,98762.56
2023-04-23T11:25:30.698Z,98908.31
2023-04-23T11:28:01.515Z,98818.94
2023-04-23T11:30:32.152Z,98831.59
2023-04-23T11:33:01.367Z,98861.25
2023-04-23T11:35:29.573Z,98774.31
2023-04-23T11:37:57.087Z,98807.97
2023-04-23T11:40:24.350Z,98911.13
2023-04-23T11:42:53.771Z,98857.06
2023-04-23T11:45:23.847Z,98798.59
2023-04-23T11:47:59.396Z,98917.66
2023-04-23T11:50:33.172Z,98823.16
2023-04-23T11:53:09.280Z,98841.47
2023-04-23T11:55:36.477Z,98809.72
2023-04-23T11:58:03.583Z,98762.59
2023-04-23T12:00:30.357Z,98925.13
2023-04-23T12:02:58.548Z,98917.94
2023-04-23T12:05:30.535Z,98696.53
2023-04-23T12:08:23.345Z,98924.19
2023-04-23T12:10:54.980Z,98917.63
2023-04-23T12:13:24.543Z,98924.41
2023-04-23T12:16:00.564Z,98898.53
2023-04-23T12:18:30.463Z,98919.44
2023-04-23T12:21:05.775Z,98810.75
2023-04-23T12:23:33.783Z,98909.00
2023-04-23T12:26:00.422Z,98935.06
2023-04-23T12:28:27.708Z,98912.38
2023-04-23T12:31:01.129Z,98927.47
2023-04-23T12:33:31.500Z,98914.28
2023-04-23T12:35:58.306Z,98939.84
2023-04-23T12:38:25.952Z,98906.34
2023-04-23T12:40:59.615Z,98943.66
2023-04-23T12:43:26.969Z,98903.00
2023-04-23T12:45:56.977Z,98935.72
2023-04-23T12:48:23.850Z,98671.66
2023-04-23T12:50:50.724Z,98815.06
2023-04-23T12:53:18.303Z,98971.03
2023-04-23T12:55:46.010Z,98932.13
2023-04-23T12:58:13.008Z,98922.19
2023-04-23T13:00:39.667Z,98937.25
2023-04-23T13:03:06.430Z,98927.31
2023-04-23T13:05:33.182Z,98948.78
2023-04-23T13:08:02.675Z,98878.69
2023-04-23T13:10:30.927Z,98837.75
2023-04-23T13:13:00.521Z,98805.91
2023-04-23T13:15:27.343Z,98914.97
2023-04-23T13:17:54.021Z,98924.69
2023-04-23T13:20:21.334Z,98910.94
2023-04-23T13:22:47.999Z,98741.25
2023-04-23T13:25:14.754Z,98930.28
2023-04-23T13:27:41.471Z,98799.53
2023-04-23T13:30:08.805Z,98731.22
2023-04-23T13:32:35.506Z,98893.06
2023-04-23T13:35:05.072Z,98890.50
2023-04-23T13:37:32.086Z,98940.75
2023-04-23T13:39:58.804Z,98913.72
2023-04-23T13:42:25.644Z,98961.41
2023-04-23T13:44:52.586Z,98801.28
2023-04-23T13:47:19.403Z,98684.97
2023-04-23T13:49:46.042Z,98953.81
2023-04-23T13:52:12.665Z,98901.81
2023-04-23T13:54:39.936Z,98951.31
2023-04-23T13:57:06.889Z,98904.53
2023-04-23T13:59:33.577Z,98923.09
2023-04-23T14:02:00.292Z,98890.53
2023-04-23T14:04:27.233Z,98938.88
2023-04-23T14:06:54.005Z,98896.44
2023-04-23T14:09:22.397Z,98829.25
2023-04-23T14:11:49.650Z,98917.53
2023-04-23T14:14:16.683Z,98890.03
2023-04-23T14:16:43.868Z,98748.25
2023-04-23T14:19:14.149Z,98942.97
2023-04-23T14:21:41.684Z,98898.63
2023-04-23T14:24:22.814Z,98819.03
2023-04-23T14:26:50.302Z,98845.78
2023-04-23T14:29:23.028Z,98941.75
2023-04-23T14:31:50.151Z,98948.84
2023-04-23T14:34:16.806Z,98804.22
2023-04-23T14:36:44.607Z,99039.25
2023-04-23T14:39:20.045Z,98943.34
2023-04-23T14:41:46.889Z,98895.78
2023-04-23T14:44:13.757Z,98935.00
2023-04-23T14:46:40.498Z,98934.22
2023-04-23T14:49:07.396Z,98929.22
2023-04-23T14:51:37.544Z,98748.31
2023-04-23T14:54:04.996Z,98888.13
2023-04-23T14:56:56.565Z,98948.47
2023-04-23T14:59:23.728Z,98856.09
2023-04-23T15:01:50.898Z,98931.75
2023-04-23T15:04:17.865Z,98784.50
2023-04-23T15:06:44.813Z,98842.66
2023-04-23T15:09:13.723Z,98933.03
2023-04-23T15:11:41.777Z,98877.25
2023-04-23T15:14:23.229Z,98936.50
2023-04-23T15:17:02.031Z,98822.38
2023-04-23T15:19:31.046Z,98882.16
2023-04-23T15:21:57.951Z,98940.97
2023-04-23T15:24:24.808Z,98723.00
2023-04-23T15:26:55.230Z,98945.66
2023-04-23T15:29:25.044Z,98950.25
2023-04-23T15:31:57.965Z,98779.66
2023-04-23T15:34:25.017Z,98907.63
2023-04-23T15:36:51.616Z,98951.41
2023-04-23T15:39:18.300Z,98942.16
2023-04-23T15:41:46.328Z,98944.44
2023-04-23T15:44:13.541Z,98923.81
2023-04-23T15:46:40.329Z,98921.88
2023-04-23T15:49:09.254Z,98662.34
2023-04-23T15:51:46.753Z,98864.56
2023-04-23T15:54:15.127Z,98754.81
2023-04-23T15:56:57.076Z,98950.31
2023-04-23T15:59:30.869Z,98838.66
2023-04-23T16:04:42.318Z,98958.56
2023-04-23T16:07:12.040Z,98948.53
2023-04-23T16:09:39.096Z,98694.25
2023-04-23T16:12:07.043Z,98959.97
2023-04-23T16:15:03.059Z,98966.59
2023-04-23T16:17:33.976Z,98829.59
2023-04-23T16:20:05.024Z,98952.34
2023-04-23T16:22:31.943Z,98897.38
2023-04-23T16:25:06.149Z,98726.75
2023-04-23T16:27:39.259Z,98902.41
2023-04-23T16:30:06.565Z,98944.22
2023-04-23T16:32:35.053Z,98968.44
2023-04-23T16:35:03.604Z,98967.47
2023-04-23T16:37:30.845Z,98762.34
2023-04-23T16:39:57.571Z,98964.59
2023-04-23T16:42:24.278Z,98968.22
2023-04-23T16:44:51.085Z,98624.06
2023-04-23T16:47:18.139Z,98979.50
2023-04-23T16:49:44.890Z,98862.09
2023-04-23T16:52:11.572Z,98686.91
2023-04-23T16:54:38.337Z,98956.75
2023-04-23T16:57:06.982Z,98828.84
2023-04-23T16:59:33.865Z,98812.88
2023-04-23T17:02:00.889Z,98891.84
2023-04-23T17:04:27.759Z,98967.22
2023-04-23T17:06:54.649Z,98940.25
2023-04-23T17:09:21.572Z,98957.25
2023-04-23T17:11:48.301Z,98954.97
2023-04-23T17:14:19.509Z,98891.34
2023-04-23T17:16:46.834Z,98869.81
2023-04-23T17:19:13.449Z,98843.75
2023-04-23T17:21:40.390Z,98822.47
2023-04-23T17:24:07.617Z,98955.28
2023-04-23T17:26:34.537Z,98841.31
2023-04-23T17:29:01.421Z,98718.69
2023-04-23T17:31:28.798Z,98947.78
2023-04-23T17:33:56.441Z,98940.81
2023-04-23T17:36:23.274Z,98847.38
2023-04-23T17:38:50.024Z,98865.16
2023-04-23T17:41:17.698Z,98948.94
2023-04-23T17:43:44.814Z,98843.78
2023-04-23T17:46:11.572Z,98788.19
2023-04-23T17:48:38.386Z,98803.81
2023-04-23T17:51:05.114Z,98670.41
2023-04-23T17:53:31.991Z,98943.25
2023-04-23T17:56:02.773Z,98962.00
2023-04-23T17:58:30.653Z,98981.53
2023-04-23T18:00:57.517Z,98950.25
2023-04-23T18:03:24.905Z,98969.19
2023-04-23T18:05:52.210Z,98873.13
2023-04-23T18:08:20.991Z,98890.72
2023-04-23T18:10:47.950Z,98997.88
2023-04-23T18:13:15.013Z,98950.06
2023-04-23T18:15:42.496Z,98987.06
2023-04-23T18:18:09.604Z,99007.13
2023-04-23T18:20:38.590Z,98908.09
2023-04-23T18:23:06.798Z,98944.06
2023-04-23T18:25:33.721Z,98958.97
2023-04-23T18:28:00.528Z,99007.75
2023-04-23T18:30:27.458Z,99013.78
2023-04-23T18:33:08.859Z,99006.84
2023-04-23T18:35:35.841Z,99002.44
2023-04-23T18:38:11.141Z,99023.69
2023-04-23T18:40:37.937Z,98921.97
2023-04-23T18:43:04.680Z,99018.13
2023-04-23T18:45:31.515Z,98903.00
2023-04-23T18:48:04.272Z,98715.22
2023-04-23T18:50:38.365Z,99018.00
2023-04-23T18:53:05.272Z,98984.56
2023-04-23T18:55:31.948Z,98919.53
2023-04-23T18:57:58.997Z,98877.25
2023-04-23T19:00:25.855Z,98996.38
2023-04-23T19:02:52.708Z,99035.22
2023-04-23T19:05:19.970Z,99132.97
2023-04-23T19:07:48.383Z,98912.16
2023-04-23T19:10:16.426Z,98861.75
2023-04-23T19:12:44.064Z,98969.84
2023-04-23T19:15:11.569Z,98949.16
2023-04-23T19:17:38.668Z,99029.94
2023-04-23T19:20:09.351Z,98997.28
2023-04-23T19:22:36.055Z,99017.84
2023-04-23T19:25:02.827Z,98955.38
2023-04-23T19:27:29.540Z,98995.69
2023-04-23T19:29:56.697Z,99002.00
2023-04-23T19:32:23.367Z,99044.44
2023-04-23T19:34:50.009Z,99055.03
2023-04-23T19:37:16.790Z,98927.28
2023-04-23T19:39:43.750Z,99032.84
2023-04-23T19:42:10.872Z,99057.31
2023-04-23T19:44:40.127Z,99058.81
2023-04-23T19:47:06.886Z,99064.69
2023-04-23T19:49:33.651Z,99030.25
2023-04-23T19:52:03.292Z,99059.94
2023-04-23T19:54:30.035Z,98986.47
2023-04-23T19:56:56.734Z,99056.38
2023-04-23T19:59:23.857Z,99026.47
2023-04-23T20:01:51.282Z,99052.94
2023-04-23T20:04:18.010Z,99054.88
2023-04-23T20:06:44.815Z,99051.75
2023-04-23T20:09:18.212Z,99052.38
2023-04-23T20:11:46.055Z,99049.78
2023-04-23T20:14:13.617Z,99073.41
2023-04-23T20:16:41.301Z,99062.50
2023-04-23T20:19:11.160Z,99021.81
2023-04-23T20:21:39.111Z,99064.59
2023-04-23T20:24:07.623Z,98917.09
2023-04-23T20:26:35.481Z,98910.88
2023-04-23T20:29:02.694Z,99063.59
2023-04-23T20:31:29.519Z,99057.03
2023-04-23T20:33:56.490Z,99060.53
2023-04-23T20:36:28.906Z,99061.84
2023-04-23T20:38:59.008Z,99072.75
2023-04-23T20:41:30.344Z,99015.56
2023-04-23T20:43:58.885Z,98972.63
2023-04-23T20:46:26.388Z,98941.25
2023-04-23T20:48:55.187Z,99056.47
2023-04-23T20:51:23.228Z,99048.50
2023-04-23T20:53:51.413Z,99027.13
2023-04-23T20:56:18.763Z,98978.41
2023-04-23T20:58:46.169Z,99042.97
2023-04-23T21:01:12.828Z,99046.88
2023-04-23T21:03:40.868Z,99052.28
2023-04-23T21:06:09.477Z,99056.03
2023-04-23T21:08:38.935Z,99053.88
2023-04-23T21:11:09.980Z,99054.94
2023-04-23T21:13:37.961Z,99059.94
2023-04-23T21:16:04.733Z,98751.19
2023-04-23T21:18:31.755Z,99056.59
2023-04-23T21:20:58.408Z,99054.47
2023-04-23T21:23:25.280Z,99052.91
2023-04-23T21:25:52.259Z,98923.00
2023-04-23T21:28:19.467Z,99014.75
2023-04-23T21:30:50.863Z,99068.06
2023-04-23T21:33:19.265Z,99068.78
2023-04-23T21:35:46.532Z,99065.03
2023-04-23T21:38:13.372Z,98999.28
2023-04-23T21:40:40.617Z,99052.59
2023-04-23T21:43:07.953Z,99029.75
2023-04-23T21:45:34.662Z,99060.03
2023-04-23T21:48:02.030Z,99059.53
2023-04-23T21:50:31.135Z,99063.47
2023-04-23T21:52:58.542Z,99048.00
2023-04-23T21:55:27.009Z,99062.22
2023-04-23T21:57:56.431Z,99062.72
2023-04-23T22:00:28.264Z,99060.53
2023-04-23T22:02:55.915Z,99039.94
2023-04-23T22:05:24.065Z,99066.69
2023-04-23T22:07:55.383Z,99053.63
2023-04-23T22:10:23.841Z,99068.78
2023-04-23T22:12:50.860Z,99042.25
2023-04-23T22:15:19.093Z,99074.91
2023-04-23T22:17:50.310Z,99154.38
2023-04-23T22:20:19.163Z,99071.63
2023-04-23T22:22:46.420Z,99068.13
2023-04-23T22:25:13.533Z,98646.41
2023-04-23T22:27:41.636Z,98941.25
2023-04-23T22:30:10.485Z,99039.97
2023-04-23T22:32:38.516Z,99054.47
2023-04-23T22:35:07.206Z,99053.59
2023-04-23T22:37:35.256Z,99049.50
2023-04-23T22:40:04.004Z,99054.41
2023-04-23T22:42:31.146Z,98657.94
2023-04-23T22:44:58.104Z,99026.34
2023-04-23T22:47:25.164Z,98735.69
2023-04-23T22:49:51.999Z,99004.25
2023-04-23T22:52:19.049Z,99063.13
2023-04-23T22:54:46.504Z,99071.81
2023-04-23T22:57:13.193Z,99014.53
2023-04-23T22:59:40.182Z,99116.13
2023-04-23T23:02:07.716Z,98962.59
2023-04-23T23:04:37.743Z,98967.56
2023-04-23T23:07:08.489Z,99050.19
2023-04-23T23:09:35.486Z,98944.31
2023-04-23T23:12:03.640Z,99043.06
2023-04-23T23:14:31.747Z,99008.28
2023-04-23T23:16:58.863Z,99054.19
2023-04-23T23:19:31.006Z,99050.63
2023-04-23T23:21:57.690Z,99018.91
2023-04-23T23:24:24.427Z,99052.88
2023-04-23T23:26:51.179Z,99044.63
2023-04-23T23:29:17.943Z,99044.00
2023-04-23T23:31:44.967Z,99019.34
2023-04-23T23:34:12.054Z,99038.19
2023-04-23T23:36:38.725Z,99028.16
2023-04-23T23:39:06.649Z,99033.25
2023-04-23T23:41:33.650Z,99035.19
2023-04-23T23:44:00.275Z,99036.81
2023-04-23T23:46:27.121Z,98812.19
2023-04-23T23:48:54.452Z,99036.81
2023-04-23T23:51:21.318Z,99025.50
2023-04-23T23:53:48.000Z,99020.38
2023-04-23T23:56:14.703Z,99098.44
2023-04-23T23:58:41.297Z,99022.97
